Time;durP1;ratioP1;P1;durP2;ratioP2;P2;SDS_P1;SDS_P2;PMS_P1;PMS_P2;Temp;Humidity;BMP_temperature;BMP_pressure;BME280_temperature;BME280_humidity;BME280_pressure;Samples;Min_cycle;Max_cycle;Signal;HPM_P1;HPM_P2
2021/07/09 00:10:07;;;;;;;7.18;2.75;;;16.20;99.90;;;;;;20487618;28;20074;-50
2021/07/09 00:20:09;;;;;;;6.57;2.13;;;16.10;99.90;;;;;;20493660;28;20043;-50
2021/07/09 00:30:11;;;;;;;3.60;1.50;;;16.10;99.90;;;;;;20487820;28;20137;-50
2021/07/09 00:40:13;;;;;;;6.28;2.83;;;16.00;99.90;;;;;;20492545;28;20050;-50
2021/07/09 00:50:15;;;;;;;6.05;1.75;;;15.90;99.90;;;;;;20485454;28;20051;-50
2021/07/09 01:00:18;;;;;;;5.45;1.70;;;15.80;99.90;;;;;;20483320;28;20134;-50
2021/07/09 01:10:20;;;;;;;5.35;2.40;;;15.70;99.90;;;;;;20486973;28;20074;-50
2021/07/09 01:20:22;;;;;;;7.07;2.67;;;15.60;99.90;;;;;;20482644;28;20046;-50
2021/07/09 01:30:24;;;;;;;6.32;2.58;;;15.40;99.90;;;;;;20485043;28;20054;-50
2021/07/09 01:40:26;;;;;;;7.00;3.38;;;15.20;99.90;;;;;;20490970;28;20054;-50
2021/07/09 01:50:28;;;;;;;6.18;2.67;;;15.20;99.90;;;;;;20479329;28;20109;-50
2021/07/09 02:00:29;;;;;;;7.72;2.25;;;15.20;99.90;;;;;;20480929;28;20054;-49
2021/07/09 02:10:33;;;;;;;6.35;1.80;;;15.00;99.90;;;;;;20489709;28;20038;-50
2021/07/09 02:20:36;;;;;;;9.05;2.55;;;15.00;99.90;;;;;;20492012;28;20403;-50
2021/07/09 02:30:38;;;;;;;7.88;2.47;;;15.00;99.90;;;;;;20479860;28;20042;-50
2021/07/09 02:40:40;;;;;;;7.25;2.83;;;14.90;99.90;;;;;;20479180;28;20234;-49
2021/07/09 02:50:42;;;;;;;5.60;2.33;;;14.70;99.90;;;;;;20479109;28;20043;-50
2021/07/09 03:00:43;;;;;;;8.63;3.03;;;14.60;99.90;;;;;;20484157;28;20051;-49
2021/07/09 03:10:44;;;;;;;12.65;3.80;;;14.70;99.90;;;;;;20482411;28;20077;-50
2021/07/09 03:20:45;;;;;;;6.43;2.55;;;14.60;99.90;;;;;;20477327;28;20133;-49
2021/07/09 03:30:46;;;;;;;8.30;2.75;;;14.40;99.90;;;;;;20475953;28;20154;-49
2021/07/09 03:40:47;;;;;;;10.70;2.97;;;14.40;99.90;;;;;;20471201;28;20067;-50
2021/07/09 03:50:49;;;;;;;8.65;2.75;;;14.40;99.90;;;;;;20497991;28;20054;-50
2021/07/09 04:00:50;;;;;;;7.60;2.97;;;14.20;99.90;;;;;;20488601;28;20106;-50
2021/07/09 04:10:52;;;;;;;9.02;2.97;;;14.10;99.90;;;;;;20491095;28;20074;-50
2021/07/09 04:20:53;;;;;;;10.50;2.58;;;14.20;99.90;;;;;;20488161;28;20050;-50
2021/07/09 04:30:54;;;;;;;11.55;3.28;;;14.40;99.90;;;;;;20492304;28;20061;-50
2021/07/09 04:40:55;;;;;;;6.20;2.95;;;14.50;99.90;;;;;;20490516;28;20039;-50
2021/07/09 04:50:57;;;;;;;7.82;2.88;;;14.60;99.90;;;;;;20493741;28;20137;-49
2021/07/09 05:00:58;;;;;;;9.88;3.53;;;14.90;99.90;;;;;;20484544;28;20051;-49
2021/07/09 05:10:59;;;;;;;10.30;4.55;;;15.20;99.90;;;;;;20482469;28;20130;-49
2021/07/09 05:21:01;;;;;;;10.10;4.07;;;15.60;99.90;;;;;;20490987;28;20130;-50
2021/07/09 05:31:03;;;;;;;10.27;4.15;;;16.10;99.90;;;;;;20488956;28;20564;-50
2021/07/09 05:41:04;;;;;;;11.20;3.63;;;16.40;99.90;;;;;;20490583;28;20050;-49
2021/07/09 05:51:05;;;;;;;12.23;3.78;;;16.50;99.90;;;;;;20489332;28;20040;-50
2021/07/09 06:01:06;;;;;;;9.60;4.00;;;16.90;99.90;;;;;;20480131;28;20155;-49
2021/07/09 06:11:08;;;;;;;8.57;3.25;;;17.10;99.90;;;;;;20485714;28;20494;-50
2021/07/09 06:21:09;;;;;;;10.23;4.53;;;17.30;99.90;;;;;;20499853;28;20042;-50
2021/07/09 06:31:10;;;;;;;8.40;3.25;;;17.40;99.90;;;;;;20515068;28;20062;-51
2021/07/09 06:41:12;;;;;;;9.27;3.20;;;17.80;99.90;;;;;;20508001;28;20126;-50
2021/07/09 06:51:14;;;;;;;8.13;3.00;;;17.90;99.90;;;;;;20513957;28;20158;-47
2021/07/09 07:01:15;;;;;;;8.95;2.95;;;18.20;99.90;;;;;;20495308;28;20055;-48
2021/07/09 07:11:16;;;;;;;9.32;4.25;;;18.20;99.90;;;;;;20506554;28;20042;-50
2021/07/09 07:21:17;;;;;;;7.82;3.47;;;18.40;99.90;;;;;;20337230;28;20059;-51
2021/07/09 07:31:20;;;;;;;7.68;3.22;;;18.60;99.90;;;;;;20514166;28;20047;-47
2021/07/09 07:41:22;;;;;;;10.88;4.50;;;18.40;99.90;;;;;;20495445;28;20043;-47
2021/07/09 07:51:25;;;;;;;8.45;3.65;;;18.70;99.90;;;;;;20492630;28;20051;-47
2021/07/09 08:01:30;;;;;;;13.07;4.60;;;19.00;99.90;;;;;;20494541;28;20042;-48
2021/07/09 08:11:34;;;;;;;12.70;4.73;;;19.00;99.90;;;;;;20493609;28;20658;-48
2021/07/09 08:21:35;;;;;;;34.65;12.65;;;19.30;99.90;;;;;;20485872;28;20050;-47
2021/07/09 08:31:37;;;;;;;8.70;3.72;;;20.00;99.90;;;;;;20501174;28;20046;-48
2021/07/09 08:41:39;;;;;;;7.07;2.70;;;20.20;99.90;;;;;;20506025;28;20043;-48
2021/07/09 08:51:41;;;;;;;5.57;2.88;;;20.20;99.90;;;;;;20504596;28;20031;-48
2021/07/09 09:01:50;;;;;;;8.52;3.45;;;20.30;99.90;;;;;;20496268;28;20043;-48
2021/07/09 09:12:05;;;;;;;8.77;3.10;;;20.80;99.90;;;;;;20499308;28;20050;-48
2021/07/09 09:22:09;;;;;;;7.50;3.50;;;20.90;99.90;;;;;;20505947;28;20050;-48
2021/07/09 09:32:11;;;;;;;6.95;3.15;;;21.20;99.90;;;;;;20497406;28;20038;-48
2021/07/09 09:42:18;;;;;;;5.85;2.60;;;21.00;99.90;;;;;;20495735;28;20075;-48
2021/07/09 09:52:42;;;;;;;7.20;2.93;;;21.40;99.90;;;;;;20493529;28;20672;-47
2021/07/09 10:02:44;;;;;;;4.68;2.63;;;21.60;99.90;;;;;;20506831;28;20062;-48
2021/07/09 10:12:50;;;;;;;4.05;1.85;;;22.40;99.90;;;;;;20503604;28;20050;-47
2021/07/09 10:22:52;;;;;;;3.45;1.95;;;22.50;99.90;;;;;;20530045;28;20110;-47
2021/07/09 10:32:53;;;;;;;4.53;1.95;;;22.00;99.90;;;;;;20529926;28;20133;-47
2021/07/09 10:42:54;;;;;;;4.20;1.92;;;21.70;99.90;;;;;;20492355;28;20062;-48
2021/07/09 10:52:57;;;;;;;19.30;10.85;;;22.40;99.90;;;;;;20492113;28;20794;-48
2021/07/09 11:03:07;;;;;;;8.90;3.97;;;22.00;99.90;;;;;;20487970;28;20606;-48
2021/07/09 11:13:39;;;;;;;4.57;2.28;;;22.60;99.90;;;;;;20489704;28;20554;-47
2021/07/09 11:23:51;;;;;;;4.00;1.95;;;22.10;99.90;;;;;;20512277;28;20050;-47
2021/07/09 11:34:08;;;;;;;4.35;2.22;;;21.70;99.90;;;;;;20492333;28;20039;-47
2021/07/09 11:44:09;;;;;;;4.97;2.40;;;22.10;99.90;;;;;;20508050;28;20039;-47
2021/07/09 11:54:10;;;;;;;6.35;2.53;;;21.60;99.90;;;;;;20494325;28;20057;-48
2021/07/09 12:04:31;;;;;;;5.25;2.67;;;21.50;99.90;;;;;;20491310;28;20347;-47
2021/07/09 12:14:55;;;;;;;3.67;1.83;;;21.80;99.90;;;;;;20510879;28;20070;-48
2021/07/09 12:25:01;;;;;;;4.05;2.03;;;22.30;99.90;;;;;;20489806;28;20501;-48
2021/07/09 12:35:08;;;;;;;5.63;2.28;;;22.40;99.90;;;;;;20500749;28;20047;-47
2021/07/09 12:45:10;;;;;;;5.07;2.30;;;22.80;99.90;;;;;;20515748;28;20053;-48
2021/07/09 12:55:32;;;;;;;11.80;5.63;;;22.30;99.90;;;;;;20500055;28;20054;-48
2021/07/09 13:05:34;;;;;;;8.18;3.22;;;22.30;99.90;;;;;;20495186;28;20406;-48
2021/07/09 13:15:36;;;;;;;8.35;2.67;;;22.10;99.90;;;;;;20511720;28;20049;-48
2021/07/09 13:25:37;;;;;;;7.55;2.83;;;23.10;99.90;;;;;;20501668;28;20050;-47
2021/07/09 13:35:43;;;;;;;7.32;3.55;;;23.50;99.90;;;;;;20483974;28;20043;-47
2021/07/09 13:45:44;;;;;;;5.38;2.65;;;23.60;99.90;;;;;;20499436;28;20039;-48
2021/07/09 13:55:45;;;;;;;6.60;2.50;;;24.10;99.90;;;;;;20490020;28;20043;-48
2021/07/09 14:05:46;;;;;;;7.07;3.33;;;23.80;99.90;;;;;;20484358;28;20055;-48
2021/07/09 14:15:48;;;;;;;6.47;3.00;;;24.00;99.90;;;;;;20493578;28;20043;-48
2021/07/09 14:25:51;;;;;;;7.43;3.20;;;23.70;99.90;;;;;;20475297;28;20050;-47
2021/07/09 14:35:52;;;;;;;10.90;3.67;;;23.40;99.90;;;;;;20495931;28;20039;-48
2021/07/09 14:45:53;;;;;;;6.13;3.33;;;23.00;99.90;;;;;;20482614;28;20141;-48
2021/07/09 14:55:54;;;;;;;7.75;3.70;;;22.90;99.90;;;;;;20433629;28;20140;-48
2021/07/09 15:05:55;;;;;;;5.78;3.05;;;23.20;99.90;;;;;;20180834;28;20050;-49
2021/07/09 15:15:56;;;;;;;8.05;3.47;;;23.50;99.90;;;;;;20501342;28;20090;-48
2021/07/09 15:25:57;;;;;;;8.95;3.80;;;23.10;99.90;;;;;;20512860;28;20039;-48
2021/07/09 15:35:58;;;;;;;8.82;3.85;;;22.50;99.90;;;;;;20505964;28;20304;-48
2021/07/09 15:46:00;;;;;;;6.88;3.33;;;22.40;99.90;;;;;;20514385;28;20061;-48
2021/07/09 15:56:01;;;;;;;7.18;3.38;;;22.20;99.90;;;;;;20493654;28;20043;-48
2021/07/09 16:06:05;;;;;;;8.85;3.58;;;22.10;99.90;;;;;;20489039;28;20039;-48
2021/07/09 16:16:07;;;;;;;8.93;4.50;;;22.00;99.90;;;;;;20505418;28;20047;-48
2021/07/09 16:26:08;;;;;;;7.85;3.75;;;22.20;99.90;;;;;;20519232;28;20041;-48
2021/07/09 16:36:10;;;;;;;8.93;3.58;;;22.00;99.90;;;;;;20533040;28;20041;-48
2021/07/09 16:46:11;;;;;;;13.05;4.53;;;21.80;99.90;;;;;;20512374;28;20091;-48
2021/07/09 16:56:12;;;;;;;9.07;3.55;;;21.90;99.90;;;;;;20513296;28;20040;-47
2021/07/09 17:06:14;;;;;;;7.57;2.80;;;21.30;99.90;;;;;;20528474;28;20150;-48
2021/07/09 17:16:15;;;;;;;12.13;3.95;;;21.00;99.90;;;;;;20518238;28;20403;-48
2021/07/09 17:26:16;;;;;;;5.50;2.40;;;21.20;99.90;;;;;;20497215;28;20051;-48
2021/07/09 17:36:18;;;;;;;10.02;3.35;;;21.00;99.90;;;;;;20519645;28;20051;-48
2021/07/09 17:46:19;;;;;;;10.05;3.88;;;21.10;99.90;;;;;;20506849;28;20041;-48
2021/07/09 17:56:20;;;;;;;8.77;3.00;;;21.00;99.90;;;;;;20501042;28;20042;-48
2021/07/09 18:06:22;;;;;;;6.72;2.40;;;20.80;99.90;;;;;;20485303;28;20363;-48
2021/07/09 18:16:23;;;;;;;6.78;2.65;;;20.50;99.90;;;;;;20522694;28;20042;-47
2021/07/09 18:26:24;;;;;;;9.07;2.80;;;20.30;99.90;;;;;;20499934;28;20074;-48
2021/07/09 18:36:25;;;;;;;4.97;2.50;;;20.30;99.90;;;;;;20520057;28;20071;-48
2021/07/09 18:46:27;;;;;;;8.05;2.45;;;20.10;99.90;;;;;;20520618;28;20038;-48
2021/07/09 18:56:28;;;;;;;6.68;2.60;;;20.00;99.90;;;;;;20500896;28;20039;-48
2021/07/09 19:06:29;;;;;;;7.55;2.83;;;19.80;99.90;;;;;;20489549;28;22835;-48
2021/07/09 19:16:31;;;;;;;7.22;2.78;;;19.70;99.90;;;;;;20494248;28;20146;-48
2021/07/09 19:26:36;;;;;;;9.10;3.53;;;19.90;99.90;;;;;;20486229;28;20038;-47
2021/07/09 19:36:37;;;;;;;5.05;2.10;;;19.60;99.90;;;;;;20495263;28;20032;-48
2021/07/09 19:46:39;;;;;;;8.05;2.88;;;19.50;99.90;;;;;;20511509;28;20035;-48
2021/07/09 19:56:42;;;;;;;6.18;2.88;;;19.30;99.90;;;;;;20481782;28;20031;-48
2021/07/09 20:06:43;;;;;;;8.27;3.38;;;19.10;99.90;;;;;;20513161;28;20039;-48
2021/07/09 20:16:44;;;;;;;11.07;3.17;;;19.00;99.90;;;;;;20527276;28;20094;-48
2021/07/09 20:26:46;;;;;;;9.30;3.00;;;19.00;99.90;;;;;;20503737;28;20034;-48
2021/07/09 20:36:47;;;;;;;10.07;3.78;;;18.70;99.90;;;;;;20508884;28;20042;-48
2021/07/09 20:46:48;;;;;;;7.80;3.25;;;18.40;99.90;;;;;;20499323;28;20047;-47
2021/07/09 20:56:49;;;;;;;9.35;3.97;;;18.30;99.90;;;;;;20511447;28;20039;-48
2021/07/09 21:06:51;;;;;;;10.68;3.95;;;18.20;99.90;;;;;;20505881;28;20137;-48
2021/07/09 21:16:52;;;;;;;11.48;4.78;;;18.10;99.90;;;;;;20507924;28;20074;-47
2021/07/09 21:26:53;;;;;;;9.43;3.83;;;18.00;99.90;;;;;;20503342;28;20039;-47
2021/07/09 21:36:54;;;;;;;15.90;5.13;;;17.80;99.90;;;;;;20500637;28;20053;-48
2021/07/09 21:46:55;;;;;;;9.32;4.10;;;17.70;99.90;;;;;;20485568;28;20035;-47
2021/07/09 21:56:56;;;;;;;8.55;3.83;;;17.60;99.90;;;;;;20482988;28;20038;-48
2021/07/09 22:06:58;;;;;;;8.93;3.60;;;17.40;99.90;;;;;;20492677;28;20047;-48
2021/07/09 22:16:59;;;;;;;11.77;4.40;;;17.30;99.90;;;;;;20482786;28;20026;-47
2021/07/09 22:27:00;;;;;;;13.52;4.95;;;17.20;99.90;;;;;;20477103;28;20044;-48
2021/07/09 22:37:01;;;;;;;14.30;4.63;;;17.20;99.90;;;;;;20504054;28;20067;-47
2021/07/09 22:47:04;;;;;;;11.85;4.75;;;17.00;99.90;;;;;;20496531;28;20541;-48
2021/07/09 22:57:06;;;;;;;11.07;4.47;;;16.90;99.90;;;;;;20503047;28;20050;-47
2021/07/09 23:07:07;;;;;;;16.17;6.03;;;16.80;99.90;;;;;;20497840;28;20125;-48
2021/07/09 23:17:08;;;;;;;11.90;4.63;;;16.60;99.90;;;;;;20488457;28;20749;-48
2021/07/09 23:27:10;;;;;;;15.13;5.22;;;16.50;99.90;;;;;;20477497;28;20054;-47
2021/07/09 23:37:11;;;;;;;14.10;5.22;;;16.30;99.90;;;;;;20487457;28;20786;-47
2021/07/09 23:47:12;;;;;;;16.92;5.65;;;16.30;99.90;;;;;;20487375;28;20292;-48
2021/07/09 23:57:13;;;;;;;14.73;5.45;;;16.40;99.90;;;;;;20488636;28;20031;-47
